Bettendorf, IA (52722)

12:37 PM CST on December 06, 2016 (GMT -0600)
Central Bettendorf | | Change Station

Elev 665 ft 41.53 °N, 90.50 °W | Updated 1 second ago

Partly Cloudy
Partly Cloudy
34.7 °F
Feels Like 24 °F
N
17.3
Wind Variable Wind from West
Gusts 18.7 mph

Today
High -- | Low -- °F
--% Chance of Precip.
Yesterday
High -- | Low -- °F
Precip. -- in
Pressure 29.85 in
Visibility 10.0 miles
Clouds Few 2000 ft
Windchill 24 °F
Dew Point 13 °F
Humidity 40%
Rainfall 0.00 in
Snow Depth Not available.
7:14 AM 4:32 PM
Waxing Crescent, 44% visible
SPECI KMLI 061805Z 28014G22KT 10SM FEW020 02/M03 A2985 RMK AO2 T00221028
Pressure 29.85 in
Visibility 10.0 miles
Clouds Few 2000 ft
Windchill 24 °F
Dew Point 13 °F
Humidity 40%
Rainfall 0.00 in
Snow Depth Not available.
7:14 AM 4:32 PM
Waxing Crescent, 44% visible
SPECI KMLI 061805Z 28014G22KT 10SM FEW020 02/M03 A2985 RMK AO2 T00221028

10-Day Weather Forecast

Almanac

Astronomy

Dec. 06, 2016 Rise Set
Actual Time
Civil Twilight
Nautical Twilight
Astronomical Twilight
Moon
Length of Visible Light
Length of Day
Tomorrow will be .
, % of the Moon is Illuminated

Today's Extremes

State Highs State Lows

Community

WunderPhotos

Upload Photos

1,955,999 photos uploaded!

WunderBlog® & News

Nearby

Air Quality

  Air Quality AQ Index Pollutant
Not available.

Snow Depth

Station Depth Elevation

Earthquake Activity

City Distance Mag. Time & Date
Minimum magnitude displayed is 2.5.

Coastal Water Temperatures

Place Temperature

Stations

Nearby Weather Stations

Station Location Temp. Windchill Dew Point Humidity Wind Precip. Elev Updated Type
                   

Watches & Warnings

There are currently no watches in effect.